createdAt,value
2018-09-23T00:01:14.420Z,97005.30
2018-09-23T00:03:43.279Z,97002.72
2018-09-23T00:06:12.139Z,96997.84
2018-09-23T00:08:41.030Z,97005.05
2018-09-23T00:11:10.134Z,96992.95
2018-09-23T00:13:39.004Z,96985.47
2018-09-23T00:16:07.952Z,96984.69
2018-09-23T00:18:36.810Z,96986.48
2018-09-23T00:21:05.751Z,96985.72
2018-09-23T00:23:34.632Z,96977.19
2018-09-23T00:26:03.775Z,96977.47
2018-09-23T00:28:32.835Z,96975.13
2018-09-23T00:31:01.749Z,96980.29
2018-09-23T00:33:30.646Z,96983.13
2018-09-23T00:35:59.948Z,96982.61
2018-09-23T00:38:28.811Z,96980.56
2018-09-23T00:40:57.684Z,96973.87
2018-09-23T00:43:26.553Z,96980.78
2018-09-23T00:45:55.455Z,96979.25
2018-09-23T00:48:24.364Z,96979.52
2018-09-23T00:50:53.644Z,96978.22
2018-09-23T00:53:22.559Z,96976.14
2018-09-23T00:55:51.543Z,96975.34
2018-09-23T00:58:20.508Z,96970.46
2018-09-23T01:00:49.464Z,96967.64
2018-09-23T01:03:18.361Z,96967.60
2018-09-23T01:05:47.267Z,96962.19
2018-09-23T01:08:16.118Z,96954.45
2018-09-23T01:10:45.003Z,96944.93
2018-09-23T01:13:13.979Z,96942.11
2018-09-23T01:15:42.896Z,96938.48
2018-09-23T01:18:11.764Z,96940.32
2018-09-23T01:20:41.913Z,96931.54
2018-09-23T01:23:10.772Z,96933.11
2018-09-23T01:25:39.656Z,96925.11
2018-09-23T01:28:08.521Z,96926.92
2018-09-23T01:30:39.515Z,96930.78
2018-09-23T01:33:08.377Z,96916.64
2018-09-23T01:35:37.388Z,96917.14
2018-09-23T01:38:06.304Z,96904.27
2018-09-23T01:40:35.223Z,96901.18
2018-09-23T01:43:04.068Z,96896.28
2018-09-23T01:45:33.408Z,96885.17
2018-09-23T01:48:02.277Z,96879.52
2018-09-23T01:50:31.295Z,96864.32
2018-09-23T01:53:00.229Z,96864.59
2018-09-23T01:55:29.145Z,96868.17
2018-09-23T01:57:58.318Z,96870.49
2018-09-23T02:00:27.567Z,96868.43
2018-09-23T02:02:56.563Z,96868.96
2018-09-23T02:05:25.518Z,96856.81
2018-09-23T02:07:54.460Z,96860.72
2018-09-23T02:10:23.405Z,96849.61
2018-09-23T02:12:52.337Z,96848.34
2018-09-23T02:15:21.279Z,96843.95
2018-09-23T02:17:50.234Z,96835.19
2018-09-23T02:20:19.170Z,96835.97
2018-09-23T02:22:48.189Z,96828.20
2018-09-23T02:25:17.277Z,96821.03
2018-09-23T02:27:46.209Z,96819.46
2018-09-23T02:30:15.155Z,96814.31
2018-09-23T02:32:44.098Z,96804.00
2018-09-23T02:35:13.049Z,96796.53
2018-09-23T02:37:42.012Z,96791.63
2018-09-23T02:40:11.001Z,96781.31
2018-09-23T02:42:40.158Z,96789.83
2018-09-23T02:45:09.077Z,96780.05
2018-09-23T02:47:38.009Z,96774.90
2018-09-23T02:50:06.985Z,96764.05
2018-09-23T02:52:36.033Z,96760.41
2018-09-23T02:55:05.101Z,96749.34
2018-09-23T02:57:34.026Z,96743.40
2018-09-23T03:00:02.943Z,96739.78
2018-09-23T03:02:31.890Z,96743.86
2018-09-23T03:05:00.880Z,96739.78
2018-09-23T03:07:29.837Z,96727.94
2018-09-23T03:09:58.881Z,96719.16
2018-09-23T03:12:27.842Z,96716.83
2018-09-23T03:14:56.945Z,96709.59
2018-09-23T03:17:25.874Z,96714.75
2018-09-23T03:19:54.809Z,96708.30
2018-09-23T03:22:23.804Z,96707.27
2018-09-23T03:24:52.742Z,96693.13
2018-09-23T03:27:21.733Z,96693.37
2018-09-23T03:29:50.665Z,96689.21
2018-09-23T03:32:19.631Z,96686.09
2018-09-23T03:34:48.594Z,96679.88
2018-09-23T03:37:17.519Z,96672.16
2018-09-23T03:39:47.337Z,96668.79
2018-09-23T03:42:16.760Z,96666.45
2018-09-23T03:44:45.682Z,96661.30
2018-09-23T03:47:14.654Z,96659.21
2018-09-23T03:49:43.654Z,96652.51
2018-09-23T03:52:12.632Z,96644.23
2018-09-23T03:54:41.623Z,96638.52
2018-09-23T03:57:10.586Z,96630.53
2018-09-23T03:59:39.518Z,96620.45
2018-09-23T04:02:08.449Z,96615.52
2018-09-23T04:04:37.379Z,96611.33
2018-09-23T04:07:06.339Z,96602.27
2018-09-23T04:09:35.274Z,96600.78
2018-09-23T04:12:04.369Z,96592.49
2018-09-23T04:14:33.266Z,96597.14
2018-09-23T04:17:03.862Z,96589.91
2018-09-23T04:19:32.862Z,96592.22
2018-09-23T04:22:01.784Z,96589.64
2018-09-23T04:24:30.745Z,96588.03
2018-09-23T04:26:59.689Z,96584.08
2018-09-23T04:29:28.722Z,96587.22
2018-09-23T04:32:04.399Z,96590.80
2018-09-23T04:34:33.341Z,96579.98
2018-09-23T04:37:02.266Z,96576.03
2018-09-23T04:39:31.181Z,96573.83
2018-09-23T04:42:00.124Z,96571.02
2018-09-23T04:44:29.058Z,96571.27
2018-09-23T04:46:57.965Z,96564.70
2018-09-23T04:49:26.892Z,96565.27
2018-09-23T04:51:55.828Z,96565.59
2018-09-23T04:54:24.971Z,96551.64
2018-09-23T04:56:54.077Z,96561.55
2018-09-23T04:59:23.006Z,96549.69
2018-09-23T05:01:51.962Z,96550.71
2018-09-23T05:04:20.921Z,96537.71
2018-09-23T05:06:49.861Z,96556.30
2018-09-23T05:09:18.877Z,96541.80
2018-09-23T05:11:47.945Z,96549.89
2018-09-23T05:14:16.882Z,96546.52
2018-09-23T05:16:45.877Z,96542.89
2018-09-23T05:19:14.969Z,96546.99
2018-09-23T05:21:43.970Z,96548.55
2018-09-23T05:24:12.921Z,96540.65
2018-09-23T05:26:41.898Z,96541.38
2018-09-23T05:29:10.955Z,96534.91
2018-09-23T05:31:39.891Z,96549.09
2018-09-23T05:34:08.801Z,96547.95
2018-09-23T05:36:37.862Z,96538.64
2018-09-23T05:39:08.573Z,96538.16
2018-09-23T05:41:37.566Z,96546.97
2018-09-23T05:44:06.852Z,96526.48
2018-09-23T05:46:35.774Z,96532.67
2018-09-23T05:49:04.753Z,96529.19
2018-09-23T05:51:33.685Z,96532.47
2018-09-23T05:54:02.608Z,96525.75
2018-09-23T05:56:31.545Z,96532.61
2018-09-23T05:59:01.182Z,96536.33
2018-09-23T06:01:30.257Z,96533.50
2018-09-23T06:03:59.204Z,96538.42
2018-09-23T06:06:28.154Z,96526.23
2018-09-23T06:08:57.133Z,96535.95
2018-09-23T06:11:26.132Z,96537.41
2018-09-23T06:13:55.126Z,96537.19
2018-09-23T06:16:24.132Z,96527.31
2018-09-23T06:18:53.657Z,96536.55
2018-09-23T06:21:22.591Z,96540.66
2018-09-23T06:23:51.688Z,96529.63
2018-09-23T06:26:20.697Z,96533.19
2018-09-23T06:28:49.610Z,96519.61
2018-09-23T06:31:18.538Z,96516.54
2018-09-23T06:33:47.601Z,96526.31
2018-09-23T06:36:16.650Z,96515.70
2018-09-23T06:38:45.687Z,96529.32
2018-09-23T06:41:14.609Z,96518.41
2018-09-23T06:43:43.543Z,96526.68
2018-09-23T06:46:12.833Z,96515.59
2018-09-23T06:48:41.849Z,96521.48
2018-09-23T06:51:10.832Z,96508.13
2018-09-23T06:53:39.770Z,96509.09
2018-09-23T06:56:08.702Z,96505.02
2018-09-23T06:58:39.288Z,96496.89
2018-09-23T07:01:08.485Z,96506.12
2018-09-23T07:03:37.833Z,96506.45
2018-09-23T07:06:06.826Z,96500.16
2018-09-23T07:08:36.097Z,96502.07
2018-09-23T07:11:05.033Z,96503.97
2018-09-23T07:13:35.406Z,96502.92
2018-09-23T07:16:04.659Z,96513.06
2018-09-23T07:18:34.416Z,96516.52
2018-09-23T07:21:05.283Z,96506.56
2018-09-23T07:23:36.340Z,96518.03
2018-09-23T07:26:06.430Z,96511.99
2018-09-23T07:28:36.940Z,96515.20
2018-09-23T07:31:07.370Z,96511.05
2018-09-23T07:33:37.720Z,96514.43
2018-09-23T07:36:08.437Z,96519.72
2018-09-23T07:38:38.258Z,96503.48
2018-09-23T07:41:07.650Z,96509.06
2018-09-23T07:43:38.395Z,96510.23
2018-09-23T07:46:07.905Z,96517.88
2018-09-23T07:48:38.028Z,96501.63
2018-09-23T07:51:08.437Z,96499.06
2018-09-23T07:53:38.125Z,96494.73
2018-09-23T07:56:08.477Z,96488.60
2018-09-23T07:58:38.630Z,96492.64
2018-09-23T08:01:07.826Z,96487.69
2018-09-23T08:03:36.807Z,96479.61
2018-09-23T08:06:05.757Z,96491.05
2018-09-23T08:08:34.720Z,96480.92
2018-09-23T08:11:03.691Z,96489.27
2018-09-23T08:13:33.227Z,96486.06
2018-09-23T08:16:02.406Z,96485.03
2018-09-23T08:18:31.770Z,96476.65
2018-09-23T08:21:01.205Z,96483.45
2018-09-23T08:23:30.674Z,96483.64
2018-09-23T08:25:59.956Z,96488.83
2018-09-23T08:28:29.295Z,96480.22
2018-09-23T08:30:58.954Z,96482.94
2018-09-23T08:33:29.214Z,96475.53
2018-09-23T08:35:58.578Z,96477.66
2018-09-23T08:38:27.936Z,96485.20
2018-09-23T08:40:57.122Z,96492.98
2018-09-23T08:43:26.372Z,96490.20
2018-09-23T08:45:55.640Z,96483.29
2018-09-23T08:48:25.013Z,96476.52
2018-09-23T08:50:54.353Z,96480.27
2018-09-23T08:53:23.611Z,96476.20
2018-09-23T08:55:52.799Z,96476.38
2018-09-23T08:58:22.103Z,96480.97
2018-09-23T09:00:51.711Z,96468.11
2018-09-23T09:03:21.079Z,96474.95
2018-09-23T09:05:50.394Z,96458.80
2018-09-23T09:08:20.051Z,96460.01
2018-09-23T09:10:49.398Z,96447.52
2018-09-23T09:13:18.321Z,96442.67
2018-09-23T09:15:47.291Z,96441.00
2018-09-23T09:18:16.251Z,96447.86
2018-09-23T09:20:45.221Z,96452.99
2018-09-23T09:23:14.131Z,96454.31
2018-09-23T09:25:43.141Z,96458.94
2018-09-23T09:28:12.238Z,96457.41
2018-09-23T09:30:41.181Z,96457.73
2018-09-23T09:33:10.349Z,96457.05
2018-09-23T09:35:39.338Z,96455.66
2018-09-23T09:38:08.278Z,96455.78
2018-09-23T09:40:37.228Z,96450.06
2018-09-23T09:43:06.362Z,96438.89
2018-09-23T09:45:35.320Z,96437.07
2018-09-23T09:48:04.285Z,96441.52
2018-09-23T09:50:33.232Z,96434.63
2018-09-23T09:53:02.277Z,96429.13
2018-09-23T09:55:31.292Z,96430.59
2018-09-23T09:58:00.218Z,96420.19
2018-09-23T10:00:35.326Z,96420.34
2018-09-23T10:03:05.874Z,96417.27
2018-09-23T10:05:34.946Z,96410.36
2018-09-23T10:08:03.865Z,96411.72
2018-09-23T10:10:33.510Z,96415.52
2018-09-23T10:13:03.924Z,96413.13
2018-09-23T10:15:32.910Z,96405.31
2018-09-23T10:18:02.070Z,96397.20
2018-09-23T10:20:31.015Z,96404.87
2018-09-23T10:22:59.984Z,96385.68
2018-09-23T10:25:28.966Z,96391.55
2018-09-23T10:27:57.901Z,96391.52
2018-09-23T10:30:26.962Z,96386.47
2018-09-23T10:32:56.066Z,96384.23
2018-09-23T10:35:25.102Z,96378.16
2018-09-23T10:37:54.026Z,96379.45
2018-09-23T10:40:23.090Z,96381.86
2018-09-23T10:42:52.142Z,96374.48
2018-09-23T10:45:21.105Z,96370.61
2018-09-23T10:47:50.067Z,96370.25
2018-09-23T10:50:19.005Z,96351.89
2018-09-23T10:52:47.958Z,96348.20
2018-09-23T10:55:16.885Z,96344.65
2018-09-23T10:57:45.835Z,96352.69
2018-09-23T11:00:14.779Z,96346.80
2018-09-23T11:02:43.769Z,96349.55
2018-09-23T11:05:12.701Z,96330.84
2018-09-23T11:07:41.716Z,96329.57
2018-09-23T11:10:10.782Z,96328.58
2018-09-23T11:12:39.726Z,96325.79
2018-09-23T11:15:08.865Z,96312.41
2018-09-23T11:17:37.877Z,96312.56
2018-09-23T11:20:06.862Z,96292.80
2018-09-23T11:22:42.404Z,96298.19
2018-09-23T11:25:11.402Z,96284.84
2018-09-23T11:27:40.674Z,96290.08
2018-09-23T11:30:09.654Z,96282.44
2018-09-23T11:32:38.605Z,96278.52
2018-09-23T11:35:07.928Z,96264.03
2018-09-23T11:37:36.898Z,96263.92
2018-09-23T11:40:06.156Z,96250.19
2018-09-23T11:42:35.099Z,96246.90
2018-09-23T11:45:04.166Z,96236.55
2018-09-23T11:47:33.114Z,96245.77
2018-09-23T11:50:02.121Z,96246.95
2018-09-23T11:52:31.437Z,96222.06
2018-09-23T11:55:00.613Z,96211.53
2018-09-23T11:57:29.591Z,96209.32
2018-09-23T11:59:58.547Z,96211.01
2018-09-23T12:02:27.746Z,96194.56
2018-09-23T12:04:56.946Z,96184.64
2018-09-23T12:07:25.991Z,96191.00
2018-09-23T12:09:54.938Z,96174.58
2018-09-23T12:12:24.032Z,96179.98
2018-09-23T12:14:53.047Z,96167.68
2018-09-23T12:17:21.942Z,96157.23
2018-09-23T12:19:50.884Z,96159.06
2018-09-23T12:22:19.860Z,96154.13
2018-09-23T12:24:48.807Z,96144.66
2018-09-23T12:27:17.777Z,96153.88
2018-09-23T12:29:46.746Z,96141.23
2018-09-23T12:32:15.697Z,96136.60
2018-09-23T12:34:44.650Z,96143.28
2018-09-23T12:37:13.667Z,96121.73
2018-09-23T12:39:42.635Z,96121.87
2018-09-23T12:42:11.661Z,96128.45
2018-09-23T12:44:40.662Z,96130.33
2018-09-23T12:47:09.771Z,96109.69
2018-09-23T12:49:38.717Z,96096.02
2018-09-23T12:52:07.972Z,96106.58
2018-09-23T12:54:37.037Z,96111.28
2018-09-23T12:57:06.146Z,96092.39
2018-09-23T12:59:35.289Z,96106.39
2018-09-23T13:02:04.242Z,96085.68
2018-09-23T13:04:33.165Z,96110.52
2018-09-23T13:07:02.105Z,96068.65
2018-09-23T13:09:31.038Z,96079.72
2018-09-23T13:12:00.001Z,96071.55
2018-09-23T13:14:28.946Z,96062.04
2018-09-23T13:16:57.882Z,96048.66
2018-09-23T13:19:26.879Z,96037.59
2018-09-23T13:21:55.809Z,96034.23
2018-09-23T13:24:24.755Z,96031.11
2018-09-23T13:26:53.704Z,96035.69
2018-09-23T13:29:22.644Z,96025.93
2018-09-23T13:31:51.598Z,96020.73
2018-09-23T13:34:20.572Z,96007.77
2018-09-23T13:36:49.505Z,96000.84
2018-09-23T13:39:18.485Z,96009.31
2018-09-23T13:41:47.441Z,95999.47
2018-09-23T13:44:16.409Z,95984.30
2018-09-23T13:46:45.373Z,95978.98
2018-09-23T13:49:14.313Z,95975.27
2018-09-23T13:51:43.295Z,95986.34
2018-09-23T13:54:12.254Z,95996.40
2018-09-23T13:56:41.318Z,95968.97
2018-09-23T13:59:10.282Z,95968.78
2018-09-23T14:01:39.236Z,95943.77
2018-09-23T14:04:08.189Z,95932.54
2018-09-23T14:06:37.109Z,95943.39
2018-09-23T14:09:07.121Z,95938.37
2018-09-23T14:11:36.139Z,95925.72
2018-09-23T14:14:05.133Z,95936.28
2018-09-23T14:16:34.049Z,95935.72
2018-09-23T14:19:02.961Z,95915.66
2018-09-23T14:21:31.881Z,95915.52
2018-09-23T14:24:00.807Z,95899.87
2018-09-23T14:26:29.736Z,95902.48
2018-09-23T14:28:58.714Z,95899.51
2018-09-23T14:31:27.686Z,95907.95
2018-09-23T14:33:56.589Z,95898.94
2018-09-23T14:36:32.171Z,95896.09
2018-09-23T14:39:01.193Z,95878.44
2018-09-23T14:41:30.208Z,95882.32
2018-09-23T14:43:59.279Z,95891.22
2018-09-23T14:46:28.341Z,95876.93
2018-09-23T14:48:57.298Z,95861.48
2018-09-23T14:51:26.265Z,95868.39
2018-09-23T14:53:55.275Z,95869.47
2018-09-23T14:56:24.365Z,95845.95
2018-09-23T14:58:53.606Z,95825.31
2018-09-23T15:01:22.902Z,95814.14
2018-09-23T15:03:52.235Z,95809.73
2018-09-23T15:06:21.269Z,95812.84
2018-09-23T15:08:50.331Z,95792.14
2018-09-23T15:11:19.315Z,95790.09
2018-09-23T15:13:48.682Z,95790.39
2018-09-23T15:16:17.909Z,95794.48
2018-09-23T15:18:47.436Z,95791.17
2018-09-23T15:21:16.498Z,95777.89
2018-09-23T15:23:54.001Z,95777.56
2018-09-23T15:26:22.974Z,95785.37
2018-09-23T15:28:51.950Z,95790.23
2018-09-23T15:31:20.974Z,95779.02
2018-09-23T15:33:49.947Z,95765.89
2018-09-23T15:36:18.994Z,95768.13
2018-09-23T15:38:47.943Z,95773.13
2018-09-23T15:41:16.902Z,95768.23
2018-09-23T15:43:46.226Z,95744.38
2018-09-23T15:46:15.246Z,95749.31
2018-09-23T15:48:44.234Z,95735.31
2018-09-23T15:51:13.198Z,95737.94
2018-09-23T15:53:42.171Z,95741.06
2018-09-23T15:56:11.125Z,95749.02
2018-09-23T15:58:40.233Z,95722.66
2018-09-23T16:01:09.269Z,95724.70
2018-09-23T16:03:38.257Z,95721.97
2018-09-23T16:06:07.313Z,95728.02
2018-09-23T16:08:36.416Z,95722.05
2018-09-23T16:11:05.371Z,95711.81
2018-09-23T16:13:35.057Z,95710.23
2018-09-23T16:16:04.298Z,95737.59
2018-09-23T16:18:33.323Z,95750.14
2018-09-23T16:21:02.537Z,95728.36
2018-09-23T16:23:31.454Z,95716.86
2018-09-23T16:26:00.719Z,95710.02
2018-09-23T16:28:29.671Z,95717.90
2018-09-23T16:30:58.662Z,95678.11
2018-09-23T16:33:27.617Z,95679.95
2018-09-23T16:35:56.553Z,95703.56
2018-09-23T16:38:25.590Z,95693.07
2018-09-23T16:40:54.686Z,95680.30
2018-09-23T16:43:23.708Z,95676.37
2018-09-23T16:45:52.758Z,95679.95
2018-09-23T16:48:21.705Z,95702.56
2018-09-23T16:50:50.665Z,95729.12
2018-09-23T16:53:19.684Z,95815.75
2018-09-23T16:55:48.646Z,95866.91
2018-09-23T16:58:17.598Z,95851.77
2018-09-23T17:00:46.668Z,95902.70
2018-09-23T17:03:15.819Z,95940.84
2018-09-23T17:05:45.078Z,95938.22
2018-09-23T17:08:14.274Z,95880.86
2018-09-23T17:10:43.509Z,95945.52
2018-09-23T17:13:12.658Z,95957.55
2018-09-23T17:15:41.817Z,95962.83
2018-09-23T17:18:11.138Z,95913.11
2018-09-23T17:20:40.398Z,95873.34
2018-09-23T17:23:09.785Z,95956.14
2018-09-23T17:25:39.066Z,95989.97
2018-09-23T17:28:08.057Z,95984.86
2018-09-23T17:30:37.061Z,96003.22
2018-09-23T17:33:06.025Z,96010.77
2018-09-23T17:35:35.206Z,96012.51
2018-09-23T17:38:04.263Z,96009.14
2018-09-23T17:40:33.237Z,96018.92
2018-09-23T17:43:02.377Z,95973.88
2018-09-23T17:45:31.430Z,95934.56
2018-09-23T17:48:00.464Z,95947.13
2018-09-23T17:50:29.891Z,95976.79
2018-09-23T17:53:12.497Z,95986.67
2018-09-23T17:56:01.061Z,96009.02
2018-09-23T17:58:45.213Z,96015.27
2018-09-23T18:01:14.575Z,96027.21
2018-09-23T18:03:44.270Z,96030.87
2018-09-23T18:06:13.538Z,96068.14
2018-09-23T18:08:42.730Z,96095.63
2018-09-23T18:11:11.897Z,96106.49
2018-09-23T18:13:41.187Z,96113.74
2018-09-23T18:16:10.598Z,96087.96
2018-09-23T18:18:39.859Z,96086.34
2018-09-23T18:21:09.273Z,96067.37
2018-09-23T18:23:39.057Z,96047.47
2018-09-23T18:26:08.545Z,96052.11
2018-09-23T18:28:38.083Z,96061.12
2018-09-23T18:31:07.438Z,96073.28
2018-09-23T18:33:37.126Z,96076.70
2018-09-23T18:36:06.418Z,96090.11
2018-09-23T18:38:35.802Z,96110.72
2018-09-23T18:41:05.205Z,96125.80
2018-09-23T18:43:34.562Z,96162.88
2018-09-23T18:46:03.942Z,96176.68
2018-09-23T18:48:33.184Z,96188.88
2018-09-23T18:51:02.529Z,96231.72
2018-09-23T18:53:31.876Z,96254.44
2018-09-23T18:56:01.389Z,96273.36
2018-09-23T18:58:30.722Z,96338.16
2018-09-23T19:01:00.038Z,96336.05
2018-09-23T19:03:29.390Z,96393.53
2018-09-23T19:05:58.578Z,96386.33
2018-09-23T19:08:27.769Z,96356.42
2018-09-23T19:10:56.939Z,96327.02
2018-09-23T19:13:31.340Z,96377.07
2018-09-23T19:16:05.716Z,96391.62
2018-09-23T19:18:34.682Z,96384.75
2018-09-23T19:21:03.737Z,96373.94
2018-09-23T19:23:32.740Z,96402.77
2018-09-23T19:26:01.983Z,96373.06
2018-09-23T19:28:30.906Z,96376.37
2018-09-23T19:31:00.007Z,96383.87
2018-09-23T19:33:54.354Z,96370.37
2018-09-23T19:36:24.074Z,96412.83
2018-09-23T19:38:53.024Z,96419.30
2018-09-23T19:41:22.313Z,96438.31
2018-09-23T19:43:51.392Z,96458.93
2018-09-23T19:46:20.748Z,96451.66
2018-09-23T19:48:49.745Z,96469.53
2018-09-23T19:51:19.654Z,96512.39
2018-09-23T19:53:48.912Z,96566.66
2018-09-23T19:56:18.446Z,96601.25
2018-09-23T19:58:47.673Z,96570.80
2018-09-23T20:01:16.961Z,96573.69
2018-09-23T20:03:46.183Z,96601.55
2018-09-23T20:06:16.912Z,96599.64
2018-09-23T20:08:47.226Z,96591.41
2018-09-23T20:11:17.286Z,96603.82
2018-09-23T20:13:47.177Z,96607.28
2018-09-23T20:16:17.443Z,96624.10
2018-09-23T20:18:47.842Z,96593.72
2018-09-23T20:21:17.862Z,96590.89
2018-09-23T20:23:47.820Z,96580.34
2018-09-23T20:26:18.491Z,96596.05
2018-09-23T20:28:47.942Z,96591.95
2018-09-23T20:31:17.071Z,96641.16
2018-09-23T20:33:46.142Z,96657.98
2018-09-23T20:36:15.177Z,96664.21
2018-09-23T20:38:44.224Z,96656.38
2018-09-23T20:41:13.198Z,96675.20
2018-09-23T20:43:42.428Z,96696.59
2018-09-23T20:46:11.466Z,96710.80
2018-09-23T20:48:40.559Z,96713.38
2018-09-23T20:51:09.658Z,96748.45
2018-09-23T20:53:38.730Z,96760.81
2018-09-23T20:56:14.257Z,96778.83
2018-09-23T20:58:43.533Z,96789.42
2018-09-23T21:01:12.485Z,96806.66
2018-09-23T21:03:41.543Z,96826.74
2018-09-23T21:06:10.545Z,96834.71
2018-09-23T21:08:39.641Z,96844.23
2018-09-23T21:11:09.151Z,96860.72
2018-09-23T21:13:38.143Z,96863.26
2018-09-23T21:16:07.249Z,96884.11
2018-09-23T21:18:36.229Z,96882.33
2018-09-23T21:21:05.367Z,96872.77
2018-09-23T21:23:34.353Z,96874.60
2018-09-23T21:26:03.491Z,96873.55
2018-09-23T21:28:32.544Z,96898.25
2018-09-23T21:31:01.903Z,96884.11
2018-09-23T21:33:31.368Z,96873.80
2018-09-23T21:36:00.768Z,96871.98
2018-09-23T21:38:29.965Z,96877.63
2018-09-23T21:40:59.703Z,96887.34
2018-09-23T21:43:30.345Z,96895.05
2018-09-23T21:45:59.599Z,96904.84
2018-09-23T21:48:29.821Z,96908.97
2018-09-23T21:51:00.096Z,96925.44
2018-09-23T21:53:30.133Z,96931.88
2018-09-23T21:55:59.967Z,96942.38
2018-09-23T21:58:30.210Z,96960.37
2018-09-23T22:01:00.613Z,96972.16
2018-09-23T22:03:30.262Z,96987.48
2018-09-23T22:06:00.234Z,96993.92
2018-09-23T22:08:29.647Z,97000.94
2018-09-23T22:10:59.036Z,97010.59
2018-09-23T22:13:29.010Z,97013.17
2018-09-23T22:15:58.154Z,97024.26
2018-09-23T22:18:27.883Z,97036.11
2018-09-23T22:20:57.722Z,97057.21
2018-09-23T22:23:27.251Z,97069.86
2018-09-23T22:25:57.245Z,97090.92
2018-09-23T22:28:27.709Z,97106.14
2018-09-23T22:30:57.623Z,97117.08
2018-09-23T22:33:27.920Z,97130.40
2018-09-23T22:35:57.797Z,97141.67
2018-09-23T22:38:27.888Z,97153.21
2018-09-23T22:40:57.828Z,97151.53
2018-09-23T22:43:27.029Z,97161.48
2018-09-23T22:45:56.170Z,97174.66
2018-09-23T22:48:25.794Z,97175.78
2018-09-23T22:50:55.995Z,97191.09
2018-09-23T22:53:25.548Z,97195.90
2018-09-23T22:55:55.422Z,97199.19
2018-09-23T22:58:25.147Z,97217.89
2018-09-23T23:00:54.844Z,97224.80
2018-09-23T23:03:24.359Z,97232.09
2018-09-23T23:05:54.210Z,97240.22
2018-09-23T23:08:23.730Z,97247.56
2018-09-23T23:10:53.590Z,97252.53
2018-09-23T23:13:23.400Z,97261.92
2018-09-23T23:15:53.301Z,97268.95
2018-09-23T23:18:23.150Z,97273.13
2018-09-23T23:20:52.973Z,97283.53
2018-09-23T23:23:23.087Z,97298.23
2018-09-23T23:25:52.882Z,97310.92
2018-09-23T23:28:23.072Z,97317.50
2018-09-23T23:30:52.273Z,97331.99
2018-09-23T23:33:22.114Z,97344.30
2018-09-23T23:35:52.188Z,97351.00
2018-09-23T23:38:22.724Z,97362.97
2018-09-23T23:40:52.630Z,97366.78
2018-09-23T23:43:22.248Z,97380.16
2018-09-23T23:45:51.829Z,97379.94
2018-09-23T23:48:23.151Z,97395.28
2018-09-23T23:50:53.788Z,97392.25
2018-09-23T23:53:23.568Z,97404.94
2018-09-23T23:55:52.793Z,97415.60
2018-09-23T23:58:22.093Z,97418.36
